This is the latest recevied weather packets stored in our database for station/object SP1BMW-13. If no packets are shown the sender has not sent any weather packets the latest 10 day(s).
| Time | Temp. | Humidity | Pressure | Rain* | Wind** | Luminosity | Snow |
|---|---|---|---|---|---|---|---|
| 1777624640 | 18.33° C | 44% | 1027.8 hPa | 0 mm | 1.79 m/s, 291° | 532 W/m² | - |
| 1777624580 | 18.33° C | 43% | 1027.7 hPa | 0 mm | 2.24 m/s, 271° | 531 W/m² | - |
| 1777624520 | 18.33° C | 45% | 1027.9 hPa | 0 mm | 0.89 m/s, 224° | 530 W/m² | - |
| 1777624460 | 18.33° C | 44% | 1027.7 hPa | 0 mm | 1.34 m/s, 260° | 529 W/m² | - |
| 1777624400 | 17.78° C | 45% | 1027.9 hPa | 0 mm | 1.79 m/s, 301° | 527 W/m² | - |
| 1777624340 | 17.78° C | 45% | 1027.6 hPa | 0 mm | 0.89 m/s, 307° | 525 W/m² | - |
| 1777624281 | 17.78° C | 45% | 1027.7 hPa | 0 mm | 1.79 m/s, 264° | 525 W/m² | - |
| 1777624220 | 17.78° C | 46% | 1027.6 hPa | 0 mm | 2.24 m/s, 316° | 523 W/m² | - |
| 1777624161 | 17.78° C | 45% | 1027.7 hPa | 0 mm | 1.34 m/s, 312° | 522 W/m² | - |
| 1777624102 | 17.78° C | 45% | 1027.8 hPa | 0 mm | 1.34 m/s, 293° | 520 W/m² | - |
| 1777624043 | 17.78° C | 43% | 1027.7 hPa | 0 mm | 2.68 m/s, 309° | 519 W/m² | - |
| 1777623981 | 17.78° C | 44% | 1027.7 hPa | 0 mm | 2.24 m/s, 307° | 517 W/m² | - |
| 1777623920 | 17.78° C | 44% | 1027.9 hPa | 0 mm | 1.79 m/s, 293° | 515 W/m² | - |
| 1777623861 | 17.78° C | 46% | 1027.7 hPa | 0 mm | 0.89 m/s, 269° | 514 W/m² | - |
| 1777623800 | 17.78° C | 45% | 1027.8 hPa | 0 mm | 1.34 m/s, 293° | 513 W/m² | - |
| 1777623740 | 17.22° C | 47% | 1027.8 hPa | 0 mm | 0.89 m/s, 301° | 511 W/m² | - |
| 1777623681 | 17.22° C | 46% | 1027.8 hPa | 0 mm | 1.34 m/s, 330° | 509 W/m² | - |
| 1777623621 | 17.22° C | 45% | 1027.8 hPa | 0 mm | 1.79 m/s, 304° | 507 W/m² | - |
| 1777623560 | 17.22° C | 46% | 1027.7 hPa | 0 mm | 0.89 m/s, 357° | 505 W/m² | - |
| 1777623500 | 17.22° C | 46% | 1027.9 hPa | 0 mm | 1.79 m/s, 259° | 502 W/m² | - |
| 1777623440 | 17.22° C | 45% | 1027.7 hPa | 0 mm | 1.79 m/s, 294° | 500 W/m² | - |
| 1777623380 | 17.22° C | 45% | 1027.8 hPa | 0 mm | 2.68 m/s, 249° | 499 W/m² | - |
| 1777623320 | 17.22° C | 45% | 1027.9 hPa | 0 mm | 2.24 m/s, 224° | 497 W/m² | - |
| 1777623260 | 17.22° C | 46% | 1027.7 hPa | 0 mm | 1.79 m/s, 281° | 494 W/m² | - |
| 1777623205 | 17.22° C | 46% | 1027.7 hPa | 0 mm | 1.34 m/s, 298° | 492 W/m² | - |
* Rain latest hour (hover to see other rain measurements)
** Current wind speed in m/s (hover to see current wind gust speed)